Time;durP1;ratioP1;P1;durP2;ratioP2;P2;SDS_P1;SDS_P2;PMS_P1;PMS_P2;Temp;Humidity;BMP_temperature;BMP_pressure;BME280_temperature;BME280_humidity;BME280_pressure;Samples;Min_cycle;Max_cycle;Signal;HPM_P1;HPM_P2
2022/04/20 00:02:11;;;;;;;5.60;5.40;;;;;;;8.97;52.68;100984.25;5112765;28;20258;-68
2022/04/20 00:04:37;;;;;;;5.90;5.80;;;;;;;8.93;52.75;100980.00;5094114;28;20247;-68
2022/04/20 00:07:04;;;;;;;5.60;5.47;;;;;;;8.92;52.98;100980.91;5099523;28;20252;-68
2022/04/20 00:09:31;;;;;;;5.73;5.63;;;;;;;8.83;52.99;100979.44;5112603;28;20185;-68
2022/04/20 00:11:57;;;;;;;6.30;6.10;;;;;;;8.81;53.10;100978.63;5112715;28;20200;-68
2022/04/20 00:14:24;;;;;;;5.97;5.87;;;;;;;8.79;53.08;100976.06;5114602;28;20639;-68
2022/04/20 00:16:50;;;;;;;5.47;5.27;;;;;;;8.83;52.92;100982.03;5113293;28;20212;-68
2022/04/20 00:19:17;;;;;;;5.87;5.67;;;;;;;8.79;53.43;100980.44;5113547;28;20559;-68
2022/04/20 00:21:43;;;;;;;5.97;5.17;;;;;;;8.70;53.67;100981.53;5113967;28;20212;-68
2022/04/20 00:24:10;;;;;;;5.93;5.73;;;;;;;8.63;53.69;100973.94;5104673;28;20201;-68
2022/04/20 00:26:36;;;;;;;5.80;5.57;;;;;;;8.60;53.87;100977.50;5104059;28;20213;-68
2022/04/20 00:29:03;;;;;;;5.93;5.50;;;;;;;8.60;53.78;100979.25;5113339;28;20216;-68
2022/04/20 00:31:29;;;;;;;6.27;6.17;;;;;;;8.53;54.04;100982.03;5112954;28;20659;-68
2022/04/20 00:33:56;;;;;;;5.93;5.60;;;;;;;8.55;53.89;100982.84;5113260;28;20185;-68
2022/04/20 00:36:22;;;;;;;5.37;5.30;;;;;;;8.51;53.86;100986.47;5113700;28;20337;-69
2022/04/20 00:38:49;;;;;;;5.63;5.37;;;;;;;8.51;54.35;100985.59;5113766;28;20189;-69
2022/04/20 00:41:15;;;;;;;6.10;5.77;;;;;;;8.48;54.42;100991.75;5092770;28;20197;-68
2022/04/20 00:43:42;;;;;;;5.70;5.60;;;;;;;8.43;54.32;100988.44;5112912;28;20246;-68
2022/04/20 00:46:10;;;;;;;5.67;5.57;;;;;;;8.39;54.47;100988.56;5095414;28;20237;-68
2022/04/20 00:48:38;;;;;;;5.67;5.57;;;;;;;8.40;54.43;100988.50;5112890;28;20283;-68
2022/04/20 00:51:05;;;;;;;5.70;5.50;;;;;;;8.36;54.69;100989.50;5095053;28;20181;-68
2022/04/20 00:53:32;;;;;;;6.23;5.93;;;;;;;8.30;55.12;100989.63;5094750;28;20189;-68
2022/04/20 00:55:59;;;;;;;5.77;5.57;;;;;;;8.32;54.89;100989.59;5094588;28;20216;-68
2022/04/20 00:58:25;;;;;;;5.53;5.43;;;;;;;8.26;55.41;100995.81;5103809;28;20243;-68
2022/04/20 01:00:53;;;;;;;5.90;5.80;;;;;;;8.21;55.36;100992.47;5092584;28;20196;-67
2022/04/20 01:03:20;;;;;;;5.93;5.83;;;;;;;8.19;55.43;100994.28;5095105;28;20213;-68
2022/04/20 01:06:22;;;;;;;6.53;6.10;;;;;;;8.08;55.63;100993.72;5093494;28;20224;-67
2022/04/20 01:08:58;;;;;;;5.37;5.17;;;;;;;8.13;55.19;100989.22;5113478;28;20260;-68
2022/04/20 01:11:43;;;;;;;5.73;5.37;;;;;;;8.09;55.49;100992.81;5112042;28;20195;-67
2022/04/20 01:14:29;;;;;;;5.87;5.77;;;;;;;8.08;55.62;100991.13;5095166;28;20192;-68
2022/04/20 01:16:58;;;;;;;5.73;5.50;;;;;;;8.00;56.06;100991.28;5112946;28;20294;-67
2022/04/20 01:19:52;;;;;;;5.80;5.70;;;;;;;8.00;55.94;100986.06;5095154;28;20192;-68
2022/04/20 01:22:22;;;;;;;10.23;5.90;;;;;;;7.96;56.21;100995.75;5094443;28;20284;-68
2022/04/20 01:25:07;;;;;;;5.40;5.27;;;;;;;7.92;56.13;100988.88;5098713;28;20215;-67
2022/04/20 01:27:40;;;;;;;5.77;5.53;;;;;;;7.89;56.01;100991.59;5095890;28;20200;-68
2022/04/20 01:30:25;;;;;;;5.77;5.60;;;;;;;7.89;56.23;100986.38;5116565;28;20570;-68
2022/04/20 01:33:11;;;;;;;5.83;5.73;;;;;;;7.90;56.29;100989.84;5103018;28;20250;-68
2022/04/20 01:35:40;;;;;;;6.77;6.50;;;;;;;7.79;56.74;100984.06;5078498;28;20305;-68
2022/04/20 01:38:07;;;;;;;6.90;6.50;;;;;;;7.73;57.06;100990.28;5095281;28;20200;-67
2022/04/20 01:40:34;;;;;;;5.93;5.83;;;;;;;7.73;56.91;100982.47;5089883;28;20656;-67
2022/04/20 01:43:00;;;;;;;6.30;6.00;;;;;;;7.69;57.18;100983.41;5089049;28;20200;-68
2022/04/20 01:45:27;;;;;;;6.03;5.87;;;;;;;7.71;56.82;100986.81;5097791;28;20203;-68
2022/04/20 01:47:56;;;;;;;5.77;5.43;;;;;;;7.75;56.74;100975.44;5114241;28;20294;-68
2022/04/20 01:53:46;;;;;;;8.20;6.63;;;;;;;7.65;57.21;100987.00;5115814;28;20201;-67
2022/04/20 01:56:33;;;;;;;6.23;6.13;;;;;;;7.58;57.45;100985.44;5096015;28;20299;-68
2022/04/20 01:59:29;;;;;;;5.63;5.57;;;;;;;7.59;57.38;100993.22;5095892;28;20201;-68
2022/04/20 02:05:12;;;;;;;6.53;6.07;;;;;;;7.50;57.75;100990.84;5097658;28;20296;-67
2022/04/20 02:07:42;;;;;;;6.03;5.90;;;;;;;7.43;57.93;101003.16;5098249;28;20601;-68
2022/04/20 02:10:10;;;;;;;6.60;6.40;;;;;;;7.52;57.74;101003.84;5086302;28;20287;-68
2022/04/20 02:12:38;;;;;;;6.73;6.43;;;;;;;7.51;57.66;100992.56;5097348;28;20191;-68
2022/04/20 02:15:23;;;;;;;6.87;6.57;;;;;;;7.48;57.90;100991.75;5098312;28;20184;-69
2022/04/20 02:18:02;;;;;;;6.20;6.03;;;;;;;7.41;58.26;100994.50;5114803;28;20203;-67
2022/04/20 02:20:47;;;;;;;6.30;6.20;;;;;;;7.38;58.23;100997.19;5091940;28;20561;-68
2022/04/20 02:23:13;;;;;;;5.57;5.37;;;;;;;7.31;58.71;100990.41;5097653;28;20199;-68
2022/04/20 02:25:40;;;;;;;5.97;5.77;;;;;;;7.28;58.73;101000.88;5095982;28;20215;-68
2022/04/20 02:28:07;;;;;;;6.50;6.03;;;;;;;7.22;59.07;100989.78;5079130;28;20192;-68
2022/04/20 02:30:33;;;;;;;5.93;5.83;;;;;;;7.18;59.11;100984.63;5096953;28;20219;-68
2022/04/20 02:32:59;;;;;;;6.33;5.93;;;;;;;7.24;59.14;100994.06;5096215;28;20709;-68
2022/04/20 02:35:27;;;;;;;6.23;6.10;;;;;;;7.20;59.21;100995.00;5089809;28;20236;-69
2022/04/20 02:37:54;;;;;;;7.30;6.43;;;;;;;7.16;59.35;100994.25;5116105;28;20181;-68
2022/04/20 02:40:20;;;;;;;6.60;6.40;;;;;;;7.18;58.97;100989.00;5114545;28;20193;-68
2022/04/20 02:42:48;;;;;;;6.60;6.10;;;;;;;7.22;59.00;100993.25;5096881;28;20287;-68
2022/04/20 02:45:16;;;;;;;6.87;6.30;;;;;;;7.15;59.38;100996.88;5097696;28;20690;-68
2022/04/20 02:47:43;;;;;;;6.53;6.13;;;;;;;7.17;59.17;100989.88;5114291;28;20213;-67
2022/04/20 02:50:09;;;;;;;8.97;8.57;;;;;;;7.09;59.84;100994.41;5113856;28;20189;-68
2022/04/20 02:52:36;;;;;;;6.10;5.90;;;;;;;7.09;59.76;100990.06;5095760;28;20197;-68
2022/04/20 02:55:04;;;;;;;6.07;5.77;;;;;;;7.12;59.55;101002.13;5085411;28;20558;-68
2022/04/20 02:57:31;;;;;;;5.40;5.20;;;;;;;7.00;60.16;101000.69;5076957;28;20218;-68
2022/04/20 02:59:58;;;;;;;6.20;5.93;;;;;;;6.96;60.25;101003.38;5110175;28;20263;-67
2022/04/20 03:02:24;;;;;;;6.80;6.20;;;;;;;7.03;60.14;100999.75;5096996;28;20204;-68
2022/04/20 03:04:52;;;;;;;6.73;6.43;;;;;;;6.96;60.60;100998.16;5097049;28;20211;-68
2022/04/20 03:07:20;;;;;;;6.27;6.07;;;;;;;6.87;60.93;100997.50;5096326;28;20211;-68
2022/04/20 03:09:51;;;;;;;6.43;6.33;;;;;;;6.89;60.94;101002.66;5095931;28;20728;-68
2022/04/20 03:12:19;;;;;;;5.27;5.17;;;;;;;6.89;61.11;101000.91;5093626;28;20194;-68
2022/04/20 03:14:54;;;;;;;7.20;6.70;;;;;;;6.89;61.31;101006.09;5077126;28;20198;-68
2022/04/20 03:17:22;;;;;;;6.43;6.23;;;;;;;6.85;61.25;101008.81;5078834;28;20266;-67
2022/04/20 03:19:48;;;;;;;6.93;6.47;;;;;;;6.89;61.11;100995.69;5096051;28;20616;-68
2022/04/20 03:22:16;;;;;;;5.97;5.53;;;;;;;6.83;61.34;100998.44;5094902;28;20538;-68
2022/04/20 03:24:43;;;;;;;5.30;5.20;;;;;;;6.80;61.29;100998.50;5097423;28;20672;-68
2022/04/20 03:27:28;;;;;;;6.03;5.93;;;;;;;6.76;61.72;100999.44;5095139;28;20225;-68
2022/04/20 03:29:56;;;;;;;6.70;6.40;;;;;;;6.76;61.46;100996.84;5114266;28;20660;-68
2022/04/20 03:32:23;;;;;;;6.47;6.23;;;;;;;6.69;62.02;101000.47;5112949;28;20203;-68
2022/04/20 03:34:49;;;;;;;6.40;6.10;;;;;;;6.73;62.17;100998.66;5095769;28;20190;-69
2022/04/20 03:37:16;;;;;;;6.97;6.37;;;;;;;6.68;62.16;100996.16;5095632;28;20222;-68
2022/04/20 03:39:44;;;;;;;5.60;5.50;;;;;;;6.69;62.07;100999.59;5106594;28;20281;-68
2022/04/20 03:42:10;;;;;;;6.60;6.27;;;;;;;6.68;62.29;101006.56;5094370;28;20235;-68
2022/04/20 03:44:38;;;;;;;6.10;6.00;;;;;;;6.61;62.59;101012.78;5114504;28;20205;-68
2022/04/20 03:47:04;;;;;;;6.43;6.07;;;;;;;6.61;62.63;101004.97;5113662;28;20741;-67
2022/04/20 03:49:31;;;;;;;6.80;6.60;;;;;;;6.53;63.22;101018.13;5096822;28;20617;-68
2022/04/20 03:51:58;;;;;;;6.27;6.07;;;;;;;6.51;63.14;101019.06;5094450;28;20263;-68
2022/04/20 03:54:28;;;;;;;6.43;6.13;;;;;;;6.56;63.05;101014.59;5076036;28;20190;-67
2022/04/20 03:57:04;;;;;;;9.87;6.43;;;;;;;6.47;63.45;101009.59;5113667;28;20569;-68
2022/04/20 03:59:37;;;;;;;6.60;6.30;;;;;;;6.46;63.74;101021.75;5095473;28;20221;-68
2022/04/20 04:02:05;;;;;;;7.67;7.27;;;;;;;6.43;63.70;101011.41;5096341;28;20198;-68
2022/04/20 04:04:38;;;;;;;6.63;6.43;;;;;;;6.45;63.93;101013.97;5096116;28;20214;-68
2022/04/20 04:07:13;;;;;;;6.43;6.10;;;;;;;6.41;64.14;101017.50;5081503;28;20579;-67
2022/04/20 04:09:39;;;;;;;5.97;5.83;;;;;;;6.44;64.12;101018.31;5085408;28;20243;-67
2022/04/20 04:12:07;;;;;;;6.90;6.60;;;;;;;6.40;64.27;101026.22;5093596;28;20201;-67
2022/04/20 04:14:41;;;;;;;7.27;6.97;;;;;;;6.31;64.93;101028.09;5089657;28;20280;-67
2022/04/20 04:17:08;;;;;;;6.90;6.60;;;;;;;6.27;65.02;101025.56;5102109;28;20221;-67
2022/04/20 04:19:35;;;;;;;7.07;6.77;;;;;;;6.21;65.33;101036.09;5091981;28;20544;-67
2022/04/20 04:22:02;;;;;;;6.37;6.17;;;;;;;6.23;65.45;101037.78;5091756;28;20186;-68
2022/04/20 04:24:35;;;;;;;6.30;6.20;;;;;;;6.23;65.43;101037.78;5089437;28;20219;-67
2022/04/20 04:27:08;;;;;;;7.07;6.70;;;;;;;6.20;65.86;101035.22;5094889;28;20209;-67
2022/04/20 04:29:38;;;;;;;15.10;6.50;;;;;;;6.21;66.00;101039.53;5094278;28;20617;-68
2022/04/20 04:32:06;;;;;;;6.53;6.27;;;;;;;6.11;66.34;101042.34;5096243;28;20187;-68
2022/04/20 04:34:33;;;;;;;7.13;6.60;;;;;;;6.19;66.00;101046.50;5095821;28;20679;-68
2022/04/20 04:37:05;;;;;;;6.63;6.30;;;;;;;6.14;66.42;101042.28;5084119;28;20286;-68
2022/04/20 04:39:33;;;;;;;12.80;6.73;;;;;;;6.15;66.38;101050.06;5096217;28;20189;-68
2022/04/20 04:42:02;;;;;;;6.27;6.17;;;;;;;6.09;66.69;101054.53;5092278;28;20653;-68
2022/04/20 04:44:32;;;;;;;6.83;6.53;;;;;;;6.09;66.89;101047.56;5092487;28;20226;-68
2022/04/20 04:49:53;;;;;;;8.27;5.80;;;;;;;6.05;67.31;101049.34;5105133;28;20193;-67
2022/04/20 04:52:19;;;;;;;6.23;6.13;;;;;;;6.07;67.53;101049.31;5112545;28;20233;-68
2022/04/20 04:54:54;;;;;;;7.37;6.67;;;;;;;6.22;67.05;101056.03;5082222;28;20200;-68
2022/04/20 04:57:20;;;;;;;7.53;7.13;;;;;;;6.28;66.70;101054.13;5094060;28;20221;-68
2022/04/20 04:59:46;;;;;;;9.73;7.00;;;;;;;6.22;66.85;101050.81;5094824;28;20558;-68
2022/04/20 05:02:19;;;;;;;6.70;6.40;;;;;;;6.11;67.47;101050.13;5112508;28;20223;-68
2022/04/20 05:04:46;;;;;;;6.63;6.27;;;;;;;6.16;67.52;101056.13;5113879;28;20593;-68
2022/04/20 05:07:13;;;;;;;7.87;6.57;;;;;;;6.23;67.47;101058.59;5095371;28;20240;-68
2022/04/20 05:09:47;;;;;;;6.93;6.63;;;;;;;6.28;67.57;101054.13;5113875;28;20179;-68
2022/04/20 05:12:14;;;;;;;8.27;6.73;;;;;;;6.29;67.75;101058.47;5093924;28;20197;-68
2022/04/20 05:14:42;;;;;;;7.40;6.97;;;;;;;6.35;67.80;101062.69;5085411;28;20186;-68
2022/04/20 05:17:09;;;;;;;6.77;6.37;;;;;;;6.35;68.17;101060.09;5076189;28;20231;-67
2022/04/20 05:19:36;;;;;;;6.70;6.43;;;;;;;6.54;67.72;101060.63;5091391;28;20198;-68
2022/04/20 05:22:11;;;;;;;7.20;6.90;;;;;;;6.57;68.09;101063.13;5091568;28;20615;-69
2022/04/20 05:24:40;;;;;;;11.20;6.73;;;;;;;6.60;67.55;101066.56;5090131;28;20291;-67
2022/04/20 05:27:11;;;;;;;6.83;6.53;;;;;;;6.74;66.90;101061.09;5093991;28;20232;-68
2022/04/20 05:29:50;;;;;;;6.70;6.47;;;;;;;6.81;67.22;101064.41;5095771;28;20185;-68
2022/04/20 05:32:17;;;;;;;6.17;6.07;;;;;;;6.85;66.80;101056.50;5095700;28;20191;-68
2022/04/20 05:34:43;;;;;;;7.30;6.73;;;;;;;6.93;67.11;101064.19;5095058;28;20224;-68
2022/04/20 05:42:46;;;;;;;7.53;6.80;;;;;;;7.15;66.61;101064.59;5074965;28;20185;-69
2022/04/20 05:45:12;;;;;;;6.60;6.50;;;;;;;7.25;65.65;101065.22;5083388;28;20296;-69
2022/04/20 05:47:43;;;;;;;7.77;7.43;;;;;;;7.38;65.41;101053.66;5090365;28;20244;-68
2022/04/20 05:50:10;;;;;;;6.40;6.20;;;;;;;7.41;65.83;101061.38;5090373;28;20196;-67
2022/04/20 05:52:36;;;;;;;7.00;6.70;;;;;;;7.51;64.28;101057.69;5109776;28;20192;-67
2022/04/20 05:55:04;;;;;;;8.17;7.27;;;;;;;7.60;64.62;101059.22;5104719;28;20194;-68
2022/04/20 05:57:34;;;;;;;7.40;7.20;;;;;;;7.65;66.01;101050.41;5091123;28;20578;-68
2022/04/20 06:00:03;;;;;;;7.30;6.90;;;;;;;7.70;65.83;101058.94;5113377;28;20179;-68
2022/04/20 06:02:33;;;;;;;7.30;6.63;;;;;;;7.82;64.28;101054.34;5109021;28;20662;-68
2022/04/20 06:05:00;;;;;;;7.80;7.30;;;;;;;7.92;65.09;101054.06;5085530;28;20208;-68
2022/04/20 06:07:44;;;;;;;6.60;6.30;;;;;;;8.04;63.71;101057.28;5074882;28;20193;-68
2022/04/20 06:10:33;;;;;;;8.27;7.87;;;;;;;8.16;62.87;101047.41;5070528;28;20212;-68
2022/04/20 06:13:06;;;;;;;7.13;6.73;;;;;;;8.18;63.22;101042.13;5113491;28;20196;-68
2022/04/20 06:15:45;;;;;;;7.73;7.43;;;;;;;8.25;63.67;101046.28;5093507;28;20205;-68
2022/04/20 06:18:14;;;;;;;7.27;6.70;;;;;;;8.50;64.07;101044.78;5113477;28;20203;-68
2022/04/20 06:20:52;;;;;;;7.10;6.80;;;;;;;8.63;62.07;101044.41;5087848;28;20192;-68
2022/04/20 06:23:26;;;;;;;7.30;6.83;;;;;;;8.67;61.71;101046.06;5097395;28;20276;-68
2022/04/20 06:26:07;;;;;;;7.80;7.20;;;;;;;8.60;60.89;101052.34;5095553;28;20251;-69
2022/04/20 06:28:52;;;;;;;6.80;6.67;;;;;;;8.61;61.71;101054.91;5114050;28;20203;-68
2022/04/20 06:31:57;;;;;;;6.97;6.57;;;;;;;8.85;61.56;101052.50;5052534;28;20292;-68
2022/04/20 06:34:46;;;;;;;7.03;6.63;;;;;;;8.91;61.61;101052.31;5043258;28;20253;-68
2022/04/20 06:37:37;;;;;;;15.13;7.07;;;;;;;9.05;60.73;101051.00;5082417;28;20201;-68
2022/04/20 06:40:22;;;;;;;7.53;7.03;;;;;;;9.17;61.82;101049.81;5111517;28;20199;-68
2022/04/20 06:42:55;;;;;;;7.43;7.00;;;;;;;9.30;60.66;101052.91;5097911;28;20185;-68
2022/04/20 06:45:27;;;;;;;7.93;7.33;;;;;;;9.31;59.00;101052.00;5092298;28;20254;-68
2022/04/20 06:48:11;;;;;;;7.47;7.17;;;;;;;9.55;60.23;101059.06;5106289;28;20195;-68
2022/04/20 06:50:52;;;;;;;8.10;7.63;;;;;;;9.57;58.96;101059.00;5095514;28;20259;-69
2022/04/20 06:59:15;;;;;;;10.13;7.93;;;;;;;9.93;58.79;101057.00;5095612;28;20918;-68
2022/04/20 07:02:00;;;;;;;7.40;7.20;;;;;;;10.04;57.78;101054.84;5107870;28;20547;-68
2022/04/20 07:04:42;;;;;;;8.23;7.77;;;;;;;10.31;57.16;101057.47;5094188;28;20181;-68
2022/04/20 07:07:22;;;;;;;8.43;7.93;;;;;;;10.47;56.42;101067.34;5110216;28;20262;-68
2022/04/20 07:10:19;;;;;;;8.57;7.70;;;;;;;10.59;55.66;101062.59;5088557;28;20187;-68
2022/04/20 07:12:52;;;;;;;8.37;8.10;;;;;;;10.53;55.80;101053.19;5095670;28;20198;-68
2022/04/20 07:15:19;;;;;;;8.50;7.80;;;;;;;10.81;55.97;101060.06;5090949;28;20560;-68
2022/04/20 07:17:45;;;;;;;8.50;7.70;;;;;;;10.91;57.19;101059.66;5076471;28;20200;-69
2022/04/20 07:20:31;;;;;;;8.07;7.63;;;;;;;11.17;55.70;101058.66;5094247;28;20323;-68
2022/04/20 07:23:05;;;;;;;8.83;8.33;;;;;;;11.34;56.98;101057.16;5076365;28;20222;-68
2022/04/20 07:25:39;;;;;;;10.97;7.97;;;;;;;11.47;55.24;101055.78;5080725;28;20207;-68
2022/04/20 07:28:24;;;;;;;9.27;8.87;;;;;;;11.61;54.89;101052.59;5115802;28;20187;-69
2022/04/20 07:31:06;;;;;;;8.83;8.40;;;;;;;11.72;55.56;101059.13;5093110;28;20200;-68
2022/04/20 07:34:04;;;;;;;8.67;7.97;;;;;;;11.83;54.07;101059.56;5093324;28;20219;-68
2022/04/20 07:36:49;;;;;;;8.00;7.33;;;;;;;11.95;52.32;101067.84;5108545;28;20232;-69
2022/04/20 07:39:39;;;;;;;8.00;7.37;;;;;;;12.08;52.80;101069.06;5103057;28;20212;-68
2022/04/20 07:42:25;;;;;;;7.80;7.17;;;;;;;12.17;52.30;101063.41;5114811;28;20271;-69
2022/04/20 07:45:04;;;;;;;8.00;7.23;;;;;;;12.30;52.43;101069.00;5078550;28;20189;-69
2022/04/20 07:47:44;;;;;;;7.93;7.47;;;;;;;12.29;51.95;101073.41;5111532;28;20189;-69
2022/04/20 07:50:31;;;;;;;8.00;7.40;;;;;;;12.50;52.23;101073.38;5080216;28;20212;-69
2022/04/20 07:53:11;;;;;;;7.40;6.97;;;;;;;12.62;50.45;101073.69;5076240;28;20190;-69
2022/04/20 07:56:03;;;;;;;7.53;7.23;;;;;;;12.78;50.21;101071.25;5078414;28;20216;-69
2022/04/20 07:58:43;;;;;;;8.10;7.50;;;;;;;13.00;50.58;101072.91;5096350;28;20181;-69
2022/04/20 08:01:48;;;;;;;7.67;7.10;;;;;;;13.09;49.64;101077.75;5099786;28;20661;-69
2022/04/20 08:04:40;;;;;;;7.50;7.17;;;;;;;13.19;49.75;101069.34;5109873;28;20196;-68
2022/04/20 08:07:13;;;;;;;8.50;8.00;;;;;;;13.22;48.98;101078.94;5088354;28;20213;-69
2022/04/20 08:09:40;;;;;;;8.47;8.03;;;;;;;13.29;49.42;101072.47;5078014;28;20213;-69
2022/04/20 08:12:08;;;;;;;7.73;7.23;;;;;;;13.43;50.27;101072.66;5088347;28;20205;-69
2022/04/20 08:14:35;;;;;;;7.60;7.27;;;;;;;13.49;48.43;101080.25;5091095;28;20225;-69
2022/04/20 08:17:13;;;;;;;8.23;7.80;;;;;;;13.62;49.10;101075.25;5080711;28;20236;-69
2022/04/20 08:19:58;;;;;;;7.20;6.70;;;;;;;13.61;47.09;101081.44;5114593;28;20183;-69
2022/04/20 08:22:44;;;;;;;7.33;7.03;;;;;;;13.67;47.64;101080.31;5096831;28;20195;-69
2022/04/20 08:25:12;;;;;;;7.77;7.37;;;;;;;13.59;47.22;101082.44;5113998;28;20206;-69
2022/04/20 08:27:39;;;;;;;7.10;6.87;;;;;;;13.79;49.14;101077.09;5114121;28;20720;-69
2022/04/20 08:30:10;;;;;;;7.07;6.97;;;;;;;14.01;47.18;101087.41;5103908;28;20185;-69
2022/04/20 08:32:38;;;;;;;7.43;7.13;;;;;;;13.97;46.55;101083.22;5108601;28;20176;-69
2022/04/20 08:35:05;;;;;;;7.40;6.83;;;;;;;14.08;47.05;101085.31;5108242;28;20213;-68
2022/04/20 08:37:32;;;;;;;7.40;7.00;;;;;;;14.25;46.16;101077.41;5108258;28;20261;-69
2022/04/20 08:39:58;;;;;;;6.93;6.50;;;;;;;14.43;47.44;101084.41;5113967;28;20575;-70
2022/04/20 08:42:29;;;;;;;10.53;6.97;;;;;;;14.50;47.32;101091.09;5114116;28;20192;-70
2022/04/20 08:45:01;;;;;;;7.30;6.73;;;;;;;14.77;46.02;101088.75;5100123;28;20652;-69
2022/04/20 08:47:34;;;;;;;6.67;6.47;;;;;;;14.85;44.86;101083.09;5102860;28;20209;-69
2022/04/20 08:50:01;;;;;;;8.07;7.37;;;;;;;14.74;45.19;101086.31;5112180;28;20173;-69
2022/04/20 08:52:37;;;;;;;6.63;6.10;;;;;;;14.88;46.42;101080.31;5111246;28;20185;-68
2022/04/20 08:55:15;;;;;;;6.83;6.53;;;;;;;15.01;44.07;101091.91;5113840;28;20576;-70
2022/04/20 08:57:44;;;;;;;7.07;6.73;;;;;;;15.03;43.00;101079.47;5110296;28;20542;-69
2022/04/20 09:00:23;;;;;;;7.17;6.90;;;;;;;15.21;42.24;101082.03;5109802;28;20201;-71
2022/04/20 09:02:55;;;;;;;6.50;6.20;;;;;;;15.17;44.58;101083.16;5110340;28;20203;-69
2022/04/20 09:05:25;;;;;;;7.27;6.97;;;;;;;14.93;43.06;101078.28;5103117;28;20261;-70
2022/04/20 09:07:52;;;;;;;6.20;6.00;;;;;;;14.95;42.81;101078.19;5102299;28;20701;-70
2022/04/20 09:10:19;;;;;;;9.53;7.20;;;;;;;14.68;43.20;101083.13;5092345;28;20177;-70
2022/04/20 09:12:47;;;;;;;6.47;6.30;;;;;;;14.87;43.81;101073.34;5105382;28;20200;-70
2022/04/20 09:15:29;;;;;;;7.17;6.67;;;;;;;15.25;45.30;101065.97;5108613;28;20185;-70
2022/04/20 09:17:56;;;;;;;5.93;5.73;;;;;;;15.17;40.05;101072.59;5111486;28;20193;-70
2022/04/20 09:20:22;;;;;;;6.03;5.83;;;;;;;15.38;41.11;101063.50;5110600;28;20208;-70
2022/04/20 09:23:29;;;;;;;5.67;5.57;;;;;;;15.53;39.75;101060.00;5110407;28;20237;-70
2022/04/20 09:25:56;;;;;;;6.17;5.97;;;;;;;15.51;41.10;101061.03;5107649;28;20228;-69
2022/04/20 09:28:24;;;;;;;5.80;5.60;;;;;;;15.33;39.81;101057.63;5112316;28;20193;-70
2022/04/20 09:30:51;;;;;;;6.17;5.27;;;;;;;15.30;41.10;101060.44;5110998;28;20189;-69
2022/04/20 09:33:18;;;;;;;5.63;5.53;;;;;;;15.42;40.75;101047.41;5112153;28;20186;-70
2022/04/20 09:35:50;;;;;;;6.53;6.10;;;;;;;15.44;39.70;101049.13;5113414;28;20736;-70
2022/04/20 09:38:22;;;;;;;5.27;5.17;;;;;;;15.42;40.16;101049.19;5088838;28;20258;-69
2022/04/20 09:41:20;;;;;;;5.63;4.90;;;;;;;15.49;40.92;101047.91;5087817;28;20568;-70
2022/04/20 09:44:06;;;;;;;5.67;5.43;;;;;;;15.54;41.01;101045.88;5094710;28;20193;-70
2022/04/20 09:49:34;;;;;;;5.60;5.50;;;;;;;15.69;39.23;101038.88;5095843;28;20247;-70
2022/04/20 09:52:13;;;;;;;5.57;5.30;;;;;;;15.74;40.55;101034.22;5096275;28;20664;-70
2022/04/20 09:54:53;;;;;;;6.13;6.03;;;;;;;15.77;40.72;101031.38;5096961;28;20525;-71
2022/04/20 09:57:21;;;;;;;5.50;5.30;;;;;;;15.68;39.34;101030.13;5096747;28;20255;-70
2022/04/20 09:59:59;;;;;;;5.23;5.03;;;;;;;15.50;40.51;101028.53;5103499;28;20181;-71
2022/04/20 10:02:48;;;;;;;5.17;4.90;;;;;;;15.53;39.96;101035.41;5117301;28;20174;-70
2022/04/20 10:05:18;;;;;;;5.47;5.37;;;;;;;15.66;40.23;101021.44;5116910;28;20176;-71
2022/04/20 10:07:51;;;;;;;5.33;5.23;;;;;;;15.84;40.20;101027.44;5117324;28;20173;-72
2022/04/20 10:10:18;;;;;;;5.20;5.10;;;;;;;15.67;40.51;101023.16;5105391;28;20277;-71
2022/04/20 10:12:46;;;;;;;5.13;5.03;;;;;;;15.90;39.57;101021.81;5096424;28;20166;-70
2022/04/20 10:17:59;;;;;;;7.43;6.80;;;;;;;15.76;39.05;101013.84;5116626;28;20173;-70
2022/04/20 10:20:27;;;;;;;5.90;5.63;;;;;;;15.65;38.99;101018.91;5098288;28;20195;-70
2022/04/20 10:22:54;;;;;;;5.60;5.40;;;;;;;15.91;40.97;101012.09;5116686;28;20192;-70
2022/04/20 10:25:22;;;;;;;5.50;5.50;;;;;;;16.15;40.45;101015.09;5114568;28;20245;-70
2022/04/20 10:27:57;;;;;;;6.90;6.43;;;;;;;16.03;39.55;101011.38;5116670;28;20587;-69
2022/04/20 10:30:32;;;;;;;6.17;5.97;;;;;;;16.05;40.91;101008.63;5116923;28;20173;-70
2022/04/20 10:33:07;;;;;;;5.70;5.60;;;;;;;15.99;38.88;101007.19;5098589;28;20185;-70
2022/04/20 10:35:54;;;;;;;6.03;5.93;;;;;;;16.12;41.81;101004.69;5098550;28;20254;-70
2022/04/20 10:38:21;;;;;;;7.07;6.40;;;;;;;16.39;40.24;100989.81;5094188;28;20549;-70
2022/04/20 10:41:07;;;;;;;6.57;6.20;;;;;;;16.35;39.37;100990.06;5077961;28;20204;-70
2022/04/20 10:43:38;;;;;;;6.37;6.23;;;;;;;16.29;39.21;100983.41;5077572;28;20273;-70
2022/04/20 10:46:23;;;;;;;6.03;5.70;;;;;;;16.64;39.23;100978.56;5096043;28;20285;-70
2022/04/20 10:48:58;;;;;;;5.90;5.77;;;;;;;16.65;40.93;100977.63;5095846;28;20261;-70
2022/04/20 10:51:34;;;;;;;5.30;4.90;;;;;;;16.83;38.24;100966.88;5095759;28;20174;-70
2022/04/20 10:54:26;;;;;;;4.87;4.80;;;;;;;17.08;37.31;100964.38;5105579;28;20200;-70
2022/04/20 10:57:02;;;;;;;6.47;5.40;;;;;;;17.38;37.48;100965.97;5091501;28;20258;-71
2022/04/20 10:59:28;;;;;;;5.53;5.43;;;;;;;17.46;37.86;100964.50;5111680;28;20549;-70
2022/04/20 11:02:06;;;;;;;7.60;6.17;;;;;;;17.53;38.61;100959.66;5115963;28;20235;-70
2022/04/20 11:04:47;;;;;;;15.67;5.90;;;;;;;17.19;39.71;100959.22;5116319;28;20631;-71
2022/04/20 11:07:26;;;;;;;5.77;5.67;;;;;;;17.18;37.97;100960.16;5115584;28;20572;-70
2022/04/20 11:09:58;;;;;;;7.23;6.60;;;;;;;17.02;38.65;100955.03;5095067;28;20173;-70
2022/04/20 11:18:39;;;;;;;6.23;5.63;;;;;;;17.45;39.63;100946.06;5100454;28;20659;-70
2022/04/20 11:21:24;;;;;;;5.93;5.83;;;;;;;17.48;40.00;100951.16;5104755;28;20177;-71
2022/04/20 11:24:07;;;;;;;7.10;6.80;;;;;;;17.39;38.40;100955.25;5094847;28;20190;-70
2022/04/20 11:26:39;;;;;;;6.60;6.23;;;;;;;17.28;38.86;100953.31;5094761;28;20210;-71
2022/04/20 11:29:11;;;;;;;6.43;6.07;;;;;;;17.34;38.42;100944.13;5100113;28;20618;-69
2022/04/20 11:31:42;;;;;;;8.00;6.00;;;;;;;17.25;40.68;100940.28;5093433;28;20182;-71
2022/04/20 11:34:10;;;;;;;7.73;6.63;;;;;;;17.04;38.99;100944.34;5098182;28;20609;-69
2022/04/20 11:36:43;;;;;;;6.70;6.10;;;;;;;16.88;40.80;100941.84;5092823;28;20221;-71
2022/04/20 11:39:11;;;;;;;6.40;5.93;;;;;;;17.21;39.29;100938.78;5109335;28;20193;-70
2022/04/20 11:41:42;;;;;;;8.27;7.20;;;;;;;17.36;39.65;100936.94;5113069;28;20197;-70
2022/04/20 11:44:21;;;;;;;6.20;6.10;;;;;;;17.61;39.33;100937.00;5098597;28;20216;-71
2022/04/20 11:46:53;;;;;;;6.03;5.80;;;;;;;17.81;39.25;100935.69;5092785;28;20217;-72
2022/04/20 11:49:21;;;;;;;6.23;5.93;;;;;;;17.80;39.99;100936.66;5075085;28;20566;-71
2022/04/20 11:52:00;;;;;;;6.27;6.07;;;;;;;17.52;39.33;100927.03;5075212;28;20194;-71
2022/04/20 11:54:28;;;;;;;6.47;6.37;;;;;;;17.62;39.82;100924.59;5076959;28;20227;-71
2022/04/20 11:57:06;;;;;;;6.30;6.23;;;;;;;17.77;39.46;100926.25;5077015;28;20307;-70
2022/04/20 11:59:33;;;;;;;6.43;6.10;;;;;;;17.69;38.13;100923.25;5115133;28;20197;-71
2022/04/20 12:02:00;;;;;;;5.93;5.60;;;;;;;17.59;39.08;100919.53;5114547;28;20193;-70
2022/04/20 12:04:27;;;;;;;6.30;6.20;;;;;;;17.93;39.40;100915.47;5109864;28;20299;-70
2022/04/20 12:06:55;;;;;;;7.70;7.30;;;;;;;17.81;37.07;100909.19;5091650;28;20213;-71
2022/04/20 12:09:28;;;;;;;6.97;6.77;;;;;;;17.46;38.75;100916.84;5114512;28;20715;-71
2022/04/20 12:11:57;;;;;;;6.90;6.80;;;;;;;17.71;37.15;100904.63;5114624;28;20185;-70
2022/04/20 12:14:28;;;;;;;7.07;6.47;;;;;;;17.45;37.37;100907.22;5096087;28;20251;-70
2022/04/20 12:16:58;;;;;;;6.60;6.50;;;;;;;17.08;39.08;100905.31;5093826;28;20205;-70
2022/04/20 12:19:30;;;;;;;7.20;7.00;;;;;;;16.80;39.06;100906.25;5081487;28;20588;-70
2022/04/20 12:22:05;;;;;;;7.27;6.93;;;;;;;16.97;40.42;100906.00;5108960;28;20223;-70
2022/04/20 12:24:32;;;;;;;6.40;6.37;;;;;;;17.05;39.39;100906.34;5094061;28;20651;-71
2022/04/20 12:26:59;;;;;;;6.60;6.40;;;;;;;17.04;38.36;100902.00;5093571;28;20206;-71
2022/04/20 12:29:33;;;;;;;6.53;6.10;;;;;;;17.01;38.95;100899.56;5093667;28;20186;-71